Time,TemperatureF,DewpointF,PressureIn,WindDirection,WindDirectionDegrees,WindSpeedMPH,WindSpeedGustMPH,Humidity,HourlyPrecipIn,Conditions,Clouds,dailyrainin,SolarRadiationWatts/m^2,SoftwareType,DateUTC
2013-01-27 00:12:00,38.1,25.0,30.34,North,360,2.0,-999.0,59,-99.99,,,0.00,0,weatherlink.com 1.10,2013-01-27 05:12:00,
2013-01-27 00:27:00,37.3,24.0,30.34,North,360,1.0,-999.0,60,-99.99,,,0.00,0,weatherlink.com 1.10,2013-01-27 05:27:00,
2013-01-27 00:42:00,37.2,24.0,30.34,North,360,3.0,-999.0,60,-99.99,,,0.00,0,weatherlink.com 1.10,2013-01-27 05:42:00,
2013-01-27 00:57:00,36.7,25.0,30.34,North,360,2.0,-999.0,63,-99.99,,,0.00,0,weatherlink.com 1.10,2013-01-27 05:57:00,
2013-01-27 01:12:00,35.8,25.0,30.34,North,360,5.0,-999.0,66,-99.99,,,0.00,0,weatherlink.com 1.10,2013-01-27 06:12:00,
2013-01-27 01:27:00,35.9,25.0,30.33,North,360,3.0,-999.0,66,-99.99,,,0.00,0,weatherlink.com 1.10,2013-01-27 06:27:00,
2013-01-27 01:42:00,34.7,25.0,30.33,NNE,24,7.0,-999.0,68,-99.99,,,0.00,0,weatherlink.com 1.10,2013-01-27 06:42:00,
2013-01-27 01:57:00,32.9,25.0,30.34,NNE,30,8.0,-999.0,73,-99.99,,,0.00,0,weatherlink.com 1.10,2013-01-27 06:57:00,
2013-01-27 02:27:00,32.1,25.0,30.35,NNE,25,4.0,-999.0,76,-99.99,,,0.00,0,weatherlink.com 1.10,2013-01-27 07:27:00,
2013-01-27 02:42:00,31.9,25.0,30.35,NNE,23,6.0,-999.0,77,-99.99,,,0.00,0,weatherlink.com 1.10,2013-01-27 07:42:00,
2013-01-27 02:57:00,31.4,26.0,30.36,NNE,24,6.0,-999.0,79,-99.99,,,0.00,0,weatherlink.com 1.10,2013-01-27 07:57:00,
2013-01-27 03:12:00,30.8,26.0,30.37,NNE,32,6.0,-999.0,81,-99.99,,,0.00,0,weatherlink.com 1.10,2013-01-27 08:12:00,
2013-01-27 03:27:00,30.5,26.0,30.38,NE,45,8.0,-999.0,84,-99.99,,,0.00,0,weatherlink.com 1.10,2013-01-27 08:27:00,
2013-01-27 03:42:00,30.1,26.0,30.38,NE,46,9.0,-999.0,86,-99.99,,,0.00,0,weatherlink.com 1.10,2013-01-27 08:42:00,
2013-01-27 03:57:00,29.4,26.0,30.39,NE,47,8.0,-999.0,87,-99.99,,,0.00,0,weatherlink.com 1.10,2013-01-27 08:57:00,
2013-01-27 04:12:00,28.7,26.0,30.38,NNE,30,7.0,-999.0,88,-99.99,,,0.00,0,weatherlink.com 1.10,2013-01-27 09:12:00,
2013-01-27 04:27:00,27.5,25.0,30.40,NE,36,7.0,-999.0,90,-99.99,,,0.00,0,weatherlink.com 1.10,2013-01-27 09:27:00,
2013-01-27 04:42:00,26.9,24.0,30.41,NE,37,5.0,-999.0,90,-99.99,,,0.00,0,weatherlink.com 1.10,2013-01-27 09:42:00,
2013-01-27 04:57:00,26.6,24.0,30.41,NE,40,6.0,-999.0,89,-99.99,,,0.00,0,weatherlink.com 1.10,2013-01-27 09:57:00,
2013-01-27 05:12:00,26.6,24.0,30.42,NE,44,9.0,-999.0,88,-99.99,,,0.00,0,weatherlink.com 1.10,2013-01-27 10:12:00,
2013-01-27 05:27:00,26.2,23.0,30.42,NE,39,5.0,-999.0,89,-99.99,,,0.00,0,weatherlink.com 1.10,2013-01-27 10:27:00,
2013-01-27 05:42:00,25.6,23.0,30.43,NE,37,10.0,-999.0,90,-99.99,,,0.00,0,weatherlink.com 1.10,2013-01-27 10:42:00,
2013-01-27 05:57:00,24.9,23.0,30.44,NE,36,9.0,-999.0,91,-99.99,,,0.00,0,weatherlink.com 1.10,2013-01-27 10:57:00,
2013-01-27 06:12:00,24.6,23.0,30.45,NE,49,5.0,-999.0,92,-99.99,,,0.00,0,weatherlink.com 1.10,2013-01-27 11:12:00,
2013-01-27 06:27:00,24.4,22.0,30.46,NE,50,7.0,-999.0,92,-99.99,,,0.00,0,weatherlink.com 1.10,2013-01-27 11:27:00,
2013-01-27 06:42:00,24.3,22.0,30.47,NE,47,5.0,-999.0,92,-99.99,,,0.00,0,weatherlink.com 1.10,2013-01-27 11:42:00,
2013-01-27 06:57:00,24.3,22.0,30.48,NE,47,5.0,-999.0,91,-99.99,,,0.00,0,weatherlink.com 1.10,2013-01-27 11:57:00,
2013-01-27 07:12:00,24.4,22.0,30.48,NE,46,3.0,-999.0,91,-99.99,,,0.00,0,weatherlink.com 1.10,2013-01-27 12:12:00,
2013-01-27 07:27:00,24.3,22.0,30.49,NE,46,6.0,-999.0,90,-99.99,,,0.00,0,weatherlink.com 1.10,2013-01-27 12:27:00,
2013-01-27 07:42:00,24.3,22.0,30.50,NE,47,6.0,-999.0,89,-99.99,,,0.00,14,weatherlink.com 1.10,2013-01-27 12:42:00,
2013-01-27 07:57:00,24.3,22.0,30.50,NE,47,3.0,-999.0,89,-99.99,,,0.00,23,weatherlink.com 1.10,2013-01-27 12:57:00,
2013-01-27 08:12:00,24.5,22.0,30.50,NE,47,5.0,-999.0,89,-99.99,,,0.00,74,weatherlink.com 1.10,2013-01-27 13:12:00,
2013-01-27 08:27:00,25.0,22.0,30.50,NE,47,3.0,-999.0,88,-99.99,,,0.00,84,weatherlink.com 1.10,2013-01-27 13:27:00,
2013-01-27 08:42:00,25.9,23.0,30.51,NE,46,1.0,-999.0,87,-99.99,,,0.00,144,weatherlink.com 1.10,2013-01-27 13:42:00,
2013-01-27 08:57:00,27.3,24.0,30.51,NE,47,2.0,-999.0,86,-99.99,,,0.00,151,weatherlink.com 1.10,2013-01-27 13:57:00,
2013-01-27 09:12:00,28.8,24.0,30.50,NE,47,3.0,-999.0,83,-99.99,,,0.00,223,weatherlink.com 1.10,2013-01-27 14:12:00,
2013-01-27 09:27:00,29.3,24.0,30.50,ENE,68,4.0,-999.0,80,-99.99,,,0.00,221,weatherlink.com 1.10,2013-01-27 14:27:00,
2013-01-27 09:42:00,29.4,24.0,30.50,ENE,71,3.0,-999.0,79,-99.99,,,0.00,197,weatherlink.com 1.10,2013-01-27 14:42:00,
2013-01-27 09:57:00,29.9,25.0,30.51,ENE,72,4.0,-999.0,81,-99.99,,,0.00,380,weatherlink.com 1.10,2013-01-27 14:57:00,
2013-01-27 10:12:00,31.0,26.0,30.51,ENE,74,2.0,-999.0,81,-99.99,,,0.00,413,weatherlink.com 1.10,2013-01-27 15:12:00,
2013-01-27 10:27:00,31.6,26.0,30.51,East,80,3.0,-999.0,79,-99.99,,,0.00,439,weatherlink.com 1.10,2013-01-27 15:27:00,
2013-01-27 10:42:00,31.6,26.0,30.51,ESE,106,7.0,-999.0,81,-99.99,,,0.00,439,weatherlink.com 1.10,2013-01-27 15:42:00,
2013-01-27 10:59:00,31.0,26.0,30.51,SE,129,2.0,-999.0,81,-99.99,,,0.00,360,weatherlink.com 1.10,2013-01-27 15:59:00,
2013-01-27 11:12:00,31.1,26.0,30.52,SE,139,2.0,-999.0,81,-99.99,,,0.00,401,weatherlink.com 1.10,2013-01-27 16:12:00,
2013-01-27 11:27:00,31.0,26.0,30.53,SE,140,4.0,-999.0,81,-99.99,,,0.00,285,weatherlink.com 1.10,2013-01-27 16:27:00,
2013-01-27 11:42:00,32.2,27.0,30.52,SE,140,4.0,-999.0,80,-99.99,,,0.00,466,weatherlink.com 1.10,2013-01-27 16:42:00,
2013-01-27 11:57:00,31.0,26.0,30.51,SE,142,6.0,-999.0,80,-99.99,,,0.00,432,weatherlink.com 1.10,2013-01-27 16:57:00,
2013-01-27 12:12:00,31.0,26.0,30.50,SE,135,4.0,-999.0,82,-99.99,,,0.00,529,weatherlink.com 1.10,2013-01-27 17:12:00,
2013-01-27 12:27:00,30.9,26.0,30.50,SSE,148,6.0,-999.0,82,-99.99,,,0.00,499,weatherlink.com 1.10,2013-01-27 17:27:00,
2013-01-27 12:42:00,31.9,27.0,30.49,SE,146,4.0,-999.0,81,-99.99,,,0.00,555,weatherlink.com 1.10,2013-01-27 17:42:00,
2013-01-27 12:57:00,32.3,27.0,30.48,SSE,161,5.0,-999.0,81,-99.99,,,0.00,601,weatherlink.com 1.10,2013-01-27 17:57:00,
2013-01-27 13:12:00,32.7,27.0,30.49,SSE,149,4.0,-999.0,79,-99.99,,,0.00,582,weatherlink.com 1.10,2013-01-27 18:12:00,
2013-01-27 13:27:00,34.4,28.0,30.48,ESE,111,6.0,-999.0,78,-99.99,,,0.00,557,weatherlink.com 1.10,2013-01-27 18:27:00,
2013-01-27 13:42:00,34.4,28.0,30.48,ESE,112,2.0,-999.0,76,-99.99,,,0.00,541,weatherlink.com 1.10,2013-01-27 18:42:00,
2013-01-27 13:57:00,33.7,27.0,30.49,SSE,165,4.0,-999.0,76,-99.99,,,0.00,399,weatherlink.com 1.10,2013-01-27 18:57:00,
2013-01-27 14:12:00,33.9,27.0,30.49,SE,137,3.0,-999.0,76,-99.99,,,0.00,431,weatherlink.com 1.10,2013-01-27 19:12:00,
2013-01-27 14:27:00,34.4,28.0,30.48,SE,145,6.0,-999.0,76,-99.99,,,0.00,220,weatherlink.com 1.10,2013-01-27 19:27:00,
2013-01-27 14:42:00,33.9,28.0,30.48,SE,143,9.0,-999.0,78,-99.99,,,0.00,353,weatherlink.com 1.10,2013-01-27 19:42:00,
2013-01-27 14:57:00,33.6,27.0,30.48,SE,139,5.0,-999.0,78,-99.99,,,0.00,295,weatherlink.com 1.10,2013-01-27 19:57:00,
2013-01-27 15:12:00,34.4,28.0,30.48,SSE,150,4.0,-999.0,77,-99.99,,,0.00,410,weatherlink.com 1.10,2013-01-27 20:12:00,
2013-01-27 15:27:00,34.4,28.0,30.50,SSE,149,7.0,-999.0,77,-99.99,,,0.00,287,weatherlink.com 1.10,2013-01-27 20:27:00,
2013-01-27 15:42:00,34.8,28.0,30.50,SE,129,5.0,-999.0,77,-99.99,,,0.00,134,weatherlink.com 1.10,2013-01-27 20:42:00,
2013-01-27 15:57:00,34.1,28.0,30.50,ESE,123,2.0,-999.0,77,-99.99,,,0.00,139,weatherlink.com 1.10,2013-01-27 20:57:00,
2013-01-27 16:12:00,34.4,28.0,30.49,SE,141,4.0,-999.0,77,-99.99,,,0.00,111,weatherlink.com 1.10,2013-01-27 21:12:00,
2013-01-27 16:27:00,34.4,28.0,30.51,SE,140,2.0,-999.0,77,-99.99,,,0.00,83,weatherlink.com 1.10,2013-01-27 21:27:00,
2013-01-27 16:42:00,34.4,28.0,30.50,SE,140,4.0,-999.0,78,-99.99,,,0.00,46,weatherlink.com 1.10,2013-01-27 21:42:00,
2013-01-27 16:57:00,34.3,28.0,30.50,SE,141,7.0,-999.0,77,-99.99,,,0.00,35,weatherlink.com 1.10,2013-01-27 21:57:00,
2013-01-27 17:12:00,33.9,28.0,30.51,SE,141,7.0,-999.0,78,-99.99,,,0.00,33,weatherlink.com 1.10,2013-01-27 22:12:00,
2013-01-27 17:27:00,33.8,28.0,30.52,SE,139,9.0,-999.0,78,-99.99,,,0.00,16,weatherlink.com 1.10,2013-01-27 22:27:00,
2013-01-27 17:42:00,33.6,28.0,30.53,SE,138,2.0,-999.0,79,-99.99,,,0.00,0,weatherlink.com 1.10,2013-01-27 22:42:00,
2013-01-27 17:57:00,33.4,28.0,30.53,SE,139,6.0,-999.0,80,-99.99,,,0.00,0,weatherlink.com 1.10,2013-01-27 22:57:00,
2013-01-27 18:12:00,33.4,28.0,30.53,SE,138,4.0,-999.0,80,-99.99,,,0.00,0,weatherlink.com 1.10,2013-01-27 23:12:00,
2013-01-27 18:27:00,33.2,28.0,30.54,SE,138,4.0,-999.0,81,-99.99,,,0.00,0,weatherlink.com 1.10,2013-01-27 23:27:00,
2013-01-27 18:42:00,33.1,28.0,30.54,SE,138,2.0,-999.0,82,-99.99,,,0.00,0,weatherlink.com 1.10,2013-01-27 23:42:00,
2013-01-27 18:57:00,32.9,28.0,30.55,SE,138,2.0,-999.0,82,-99.99,,,0.00,0,weatherlink.com 1.10,2013-01-27 23:57:00,
2013-01-27 19:12:00,32.9,28.0,30.54,SE,138,5.0,-999.0,82,-99.99,,,0.00,0,weatherlink.com 1.10,2013-01-28 00:12:00,
2013-01-27 19:27:00,32.8,28.0,30.54,SE,138,3.0,-999.0,82,-99.99,,,0.00,0,weatherlink.com 1.10,2013-01-28 00:27:00,
2013-01-27 19:42:00,32.8,28.0,30.53,SE,138,4.0,-999.0,82,-99.99,,,0.00,0,weatherlink.com 1.10,2013-01-28 00:42:00,
2013-01-27 19:57:00,32.9,28.0,30.53,SE,138,5.0,-999.0,82,-99.99,,,0.00,0,weatherlink.com 1.10,2013-01-28 00:57:00,
2013-01-27 20:12:00,32.9,28.0,30.54,SE,138,5.0,-999.0,82,-99.99,,,0.00,0,weatherlink.com 1.10,2013-01-28 01:12:00,
2013-01-27 20:27:00,33.0,28.0,30.52,SE,138,3.0,-999.0,81,-99.99,,,0.00,0,weatherlink.com 1.10,2013-01-28 01:27:00,
2013-01-27 20:42:00,33.1,28.0,30.52,SE,138,3.0,-999.0,81,-99.99,,,0.00,0,weatherlink.com 1.10,2013-01-28 01:42:00,
2013-01-27 20:57:00,33.2,28.0,30.52,SE,138,2.0,-999.0,81,-99.99,,,0.00,0,weatherlink.com 1.10,2013-01-28 01:57:00,
2013-01-27 21:12:00,33.2,28.0,30.52,SE,138,4.0,-999.0,81,-99.99,,,0.00,0,weatherlink.com 1.10,2013-01-28 02:12:00,
2013-01-27 21:27:00,33.4,28.0,30.51,SE,139,5.0,-999.0,80,-99.99,,,0.00,0,weatherlink.com 1.10,2013-01-28 02:27:00,
2013-01-27 21:42:00,33.5,28.0,30.51,SSE,153,4.0,-999.0,80,-99.99,,,0.00,0,weatherlink.com 1.10,2013-01-28 02:42:00,
2013-01-27 21:57:00,33.5,28.0,30.51,SSE,153,3.0,-999.0,80,-99.99,,,0.00,0,weatherlink.com 1.10,2013-01-28 02:57:00,
2013-01-27 22:12:00,33.4,28.0,30.51,SSE,155,3.0,-999.0,81,-99.99,,,0.00,0,weatherlink.com 1.10,2013-01-28 03:12:00,
2013-01-27 22:27:00,33.4,28.0,30.51,SSE,156,3.0,-999.0,81,-99.99,,,0.00,0,weatherlink.com 1.10,2013-01-28 03:27:00,
2013-01-27 22:42:00,33.5,28.0,30.50,SSE,156,5.0,-999.0,80,-99.99,,,0.00,0,weatherlink.com 1.10,2013-01-28 03:42:00,
2013-01-27 22:57:00,33.5,28.0,30.51,South,169,6.0,-999.0,80,-99.99,,,0.00,0,weatherlink.com 1.10,2013-01-28 03:57:00,
2013-01-27 23:12:00,33.4,28.0,30.50,South,169,5.0,-999.0,81,-99.99,,,0.00,0,weatherlink.com 1.10,2013-01-28 04:12:00,
2013-01-27 23:27:00,33.2,28.0,30.48,South,169,3.0,-999.0,81,-99.99,,,0.00,0,weatherlink.com 1.10,2013-01-28 04:27:00,
2013-01-27 23:42:00,33.3,28.0,30.49,SSW,202,3.0,-999.0,81,-99.99,,,0.00,0,weatherlink.com 1.10,2013-01-28 04:42:00,
2013-01-27 23:57:00,33.3,28.0,30.48,SSW,202,5.0,-999.0,80,-99.99,,,0.00,0,weatherlink.com 1.10,2013-01-28 04:57:00,